createdAt,value
2024-01-05T00:01:05.763Z,7.00
2024-01-05T00:03:34.286Z,6.87
2024-01-05T00:06:04.136Z,7.00
2024-01-05T00:08:32.631Z,4.57
2024-01-05T00:11:01.174Z,7.40
2024-01-05T00:13:29.968Z,4.93
2024-01-05T00:15:58.236Z,3.67
2024-01-05T00:18:26.868Z,4.93
2024-01-05T00:20:56.123Z,6.33
2024-01-05T00:23:25.736Z,5.53
2024-01-05T00:25:56.103Z,4.63
2024-01-05T00:28:24.568Z,7.20
2024-01-05T00:30:53.115Z,4.17
2024-01-05T00:33:21.560Z,6.23
2024-01-05T00:35:50.130Z,6.90
2024-01-05T00:38:18.646Z,7.23
2024-01-05T00:40:48.378Z,7.47
2024-01-05T00:43:16.795Z,5.17
2024-01-05T00:45:45.313Z,5.50
2024-01-05T00:48:13.794Z,4.90
2024-01-05T00:50:42.471Z,3.33
2024-01-05T00:53:10.831Z,4.30
2024-01-05T00:55:39.402Z,5.80
2024-01-05T00:58:09.092Z,5.10
2024-01-05T01:00:37.718Z,4.27
2024-01-05T01:03:06.580Z,6.27
2024-01-05T01:05:43.821Z,5.47
2024-01-05T01:08:16.528Z,4.83
2024-01-05T01:10:45.033Z,7.77
2024-01-05T01:13:14.759Z,7.80
2024-01-05T01:15:43.106Z,6.20
2024-01-05T01:18:11.706Z,7.33
2024-01-05T01:20:40.276Z,7.13
2024-01-05T01:23:08.509Z,5.67
2024-01-05T01:25:37.066Z,3.23
2024-01-05T01:28:06.136Z,8.60
2024-01-05T01:30:35.868Z,5.07
2024-01-05T01:33:05.853Z,3.57
2024-01-05T01:35:34.207Z,6.77
2024-01-05T01:38:02.819Z,3.90
2024-01-05T01:40:31.226Z,5.63
2024-01-05T01:43:00.054Z,8.93
2024-01-05T01:45:28.482Z,4.53
2024-01-05T01:47:58.789Z,7.03
2024-01-05T01:50:27.461Z,5.53
2024-01-05T01:52:55.786Z,6.17
2024-01-05T01:55:24.528Z,6.80
2024-01-05T01:57:52.964Z,5.10
2024-01-05T02:00:22.488Z,8.13
2024-01-05T02:02:51.007Z,6.37
2024-01-05T02:05:21.157Z,4.30
2024-01-05T02:07:50.400Z,5.03
2024-01-05T02:10:19.510Z,2.97
2024-01-05T02:12:47.780Z,7.30
2024-01-05T02:15:16.306Z,8.10
2024-01-05T02:17:44.795Z,5.80
2024-01-05T02:20:13.242Z,4.87
2024-01-05T02:22:49.905Z,5.37
2024-01-05T02:25:19.732Z,5.27
2024-01-05T02:27:48.454Z,5.03
2024-01-05T02:30:21.597Z,5.40
2024-01-05T02:32:50.078Z,5.50
2024-01-05T02:35:18.383Z,6.20
2024-01-05T02:37:46.966Z,5.27
2024-01-05T02:40:15.310Z,4.93
2024-01-05T02:42:45.122Z,4.70
2024-01-05T02:45:13.527Z,4.67
2024-01-05T02:47:42.041Z,2.93
2024-01-05T02:50:11.520Z,3.93
2024-01-05T02:52:39.893Z,5.43
2024-01-05T02:55:09.353Z,4.60
2024-01-05T02:57:37.824Z,5.67
2024-01-05T03:00:09.314Z,7.13
2024-01-05T03:02:37.990Z,3.00
2024-01-05T03:05:07.703Z,7.10
2024-01-05T03:07:37.446Z,3.70
2024-01-05T03:10:06.480Z,5.87
2024-01-05T03:12:34.925Z,5.43
2024-01-05T03:15:03.585Z,4.50
2024-01-05T03:17:33.315Z,5.37
2024-01-05T03:20:02.033Z,6.47
2024-01-05T03:22:32.066Z,4.40
2024-01-05T03:25:00.898Z,5.83
2024-01-05T03:27:29.135Z,4.20
2024-01-05T03:29:58.567Z,7.30
2024-01-05T03:32:26.977Z,6.03
2024-01-05T03:34:56.654Z,6.10
2024-01-05T03:37:24.932Z,4.57
2024-01-05T03:39:53.598Z,5.90
2024-01-05T03:42:21.874Z,4.30
2024-01-05T03:44:50.346Z,2.90
2024-01-05T03:47:18.616Z,5.70
2024-01-05T03:49:47.191Z,3.83
2024-01-05T03:52:17.063Z,3.23
2024-01-05T03:54:45.351Z,6.27
2024-01-05T03:57:13.827Z,3.97
2024-01-05T03:59:44.155Z,5.00
2024-01-05T04:02:12.954Z,2.80
2024-01-05T04:04:41.854Z,4.47
2024-01-05T04:07:10.565Z,3.63
2024-01-05T04:09:40.493Z,3.60
2024-01-05T04:12:09.052Z,3.27
2024-01-05T04:14:37.759Z,4.70
2024-01-05T04:17:06.325Z,3.27
2024-01-05T04:19:34.943Z,2.97
2024-01-05T04:22:05.324Z,4.93
2024-01-05T04:24:33.751Z,3.13
2024-01-05T04:27:03.987Z,4.03
2024-01-05T04:29:32.376Z,3.97
2024-01-05T04:32:00.733Z,4.37
2024-01-05T04:34:29.312Z,4.10
2024-01-05T04:36:57.895Z,8.03
2024-01-05T04:39:26.322Z,5.87
2024-01-05T04:41:54.787Z,2.93
2024-01-05T04:44:24.467Z,4.03
2024-01-05T04:46:52.703Z,4.57
2024-01-05T04:49:21.502Z,3.43
2024-01-05T04:51:50.304Z,4.53
2024-01-05T04:54:19.124Z,5.50
2024-01-05T04:56:47.472Z,2.37
2024-01-05T04:59:15.879Z,3.80
2024-01-05T05:01:45.792Z,2.93
2024-01-05T05:04:19.055Z,5.43
2024-01-05T05:06:48.044Z,4.63
2024-01-05T05:09:16.846Z,5.07
2024-01-05T05:11:45.344Z,4.33
2024-01-05T05:14:14.286Z,5.33
2024-01-05T05:16:42.587Z,4.27
2024-01-05T05:19:12.734Z,5.50
2024-01-05T05:21:41.314Z,4.40
2024-01-05T05:24:09.854Z,6.20
2024-01-05T05:26:38.210Z,4.70
2024-01-05T05:29:06.686Z,5.10
2024-01-05T05:31:35.038Z,2.87
2024-01-05T05:34:04.067Z,3.00
2024-01-05T05:36:34.078Z,4.67
2024-01-05T05:39:02.439Z,5.07
2024-01-05T05:41:31.011Z,3.63
2024-01-05T05:43:59.607Z,2.80
2024-01-05T05:46:27.978Z,5.27
2024-01-05T05:48:56.738Z,3.10
2024-01-05T05:51:25.227Z,4.13
2024-01-05T05:54:00.313Z,5.10
2024-01-05T05:56:28.704Z,4.60
2024-01-05T05:58:56.982Z,5.60
2024-01-05T06:01:25.978Z,4.47
2024-01-05T06:03:54.503Z,7.47
2024-01-05T06:06:24.904Z,6.70
2024-01-05T06:08:53.999Z,6.73
2024-01-05T06:11:28.005Z,4.33
2024-01-05T06:13:58.364Z,5.73
2024-01-05T06:16:26.731Z,4.57
2024-01-05T06:18:55.260Z,4.50
2024-01-05T06:21:23.710Z,3.73
2024-01-05T06:23:52.188Z,3.87
2024-01-05T06:26:20.435Z,4.47
2024-01-05T06:28:50.042Z,3.63
2024-01-05T06:31:18.504Z,5.13
2024-01-05T06:33:47.127Z,3.30
2024-01-05T06:36:17.619Z,4.33
2024-01-05T06:38:46.051Z,5.40
2024-01-05T06:41:14.386Z,5.50
2024-01-05T06:43:42.834Z,4.77
2024-01-05T06:46:12.490Z,5.27
2024-01-05T06:48:40.951Z,2.83
2024-01-05T06:51:09.423Z,4.20
2024-01-05T06:53:37.767Z,5.20
2024-01-05T06:56:07.511Z,4.50
2024-01-05T06:58:35.724Z,4.07
2024-01-05T07:01:05.202Z,3.50
2024-01-05T07:03:36.385Z,4.17
2024-01-05T07:06:05.101Z,4.20
2024-01-05T07:08:43.383Z,6.27
2024-01-05T07:11:12.450Z,8.87
2024-01-05T07:13:40.893Z,8.53
2024-01-05T07:16:17.928Z,6.80
2024-01-05T07:18:48.380Z,9.17
2024-01-05T07:21:17.591Z,7.70
2024-01-05T07:23:46.048Z,7.60
2024-01-05T07:26:14.864Z,7.07
2024-01-05T07:28:51.030Z,8.33
2024-01-05T07:31:24.433Z,4.90
2024-01-05T07:33:57.898Z,7.37
2024-01-05T07:36:26.409Z,5.30
2024-01-05T07:38:55.034Z,4.80
2024-01-05T07:41:23.807Z,5.03
2024-01-05T07:43:52.041Z,4.70
2024-01-05T07:46:20.645Z,6.93
2024-01-05T07:48:48.992Z,5.33
2024-01-05T07:51:21.678Z,6.70
2024-01-05T07:53:50.669Z,4.03
2024-01-05T07:56:19.675Z,6.47
2024-01-05T07:58:48.391Z,3.60
2024-01-05T08:01:17.335Z,7.13
2024-01-05T08:03:46.499Z,4.17
2024-01-05T08:06:20.685Z,5.93
2024-01-05T08:08:52.080Z,6.17
2024-01-05T08:11:20.689Z,6.33
2024-01-05T08:13:50.332Z,8.57
2024-01-05T08:16:18.612Z,5.17
2024-01-05T08:18:48.211Z,5.53
2024-01-05T08:21:19.280Z,5.30
2024-01-05T08:23:47.758Z,7.00
2024-01-05T08:26:19.738Z,6.93
2024-01-05T08:28:48.862Z,5.73
2024-01-05T08:31:20.332Z,5.13
2024-01-05T08:33:48.786Z,7.30
2024-01-05T08:36:19.329Z,5.50
2024-01-05T08:38:47.665Z,9.50
2024-01-05T08:41:16.539Z,23.30
2024-01-05T08:43:45.518Z,12.33
2024-01-05T08:46:14.096Z,11.07
2024-01-05T08:48:45.567Z,7.67
2024-01-05T08:51:14.285Z,6.07
2024-01-05T08:53:43.885Z,4.67
2024-01-05T08:56:12.547Z,4.67
2024-01-05T08:58:41.247Z,3.87
2024-01-05T09:01:09.950Z,3.27
2024-01-05T09:03:38.577Z,5.60
2024-01-05T09:06:10.764Z,4.83
2024-01-05T09:08:43.653Z,3.17
2024-01-05T09:11:12.569Z,4.73
2024-01-05T09:13:41.375Z,3.67
2024-01-05T09:16:09.904Z,5.23
2024-01-05T09:18:40.541Z,5.37
2024-01-05T09:21:09.096Z,4.13
2024-01-05T09:23:37.338Z,4.67
2024-01-05T09:26:15.698Z,6.60
2024-01-05T09:28:44.088Z,11.10
2024-01-05T09:31:12.824Z,6.50
2024-01-05T09:33:42.386Z,7.87
2024-01-05T09:36:11.008Z,6.53
2024-01-05T09:38:39.333Z,8.10
2024-01-05T09:41:15.323Z,5.33
2024-01-05T09:43:45.810Z,4.70
2024-01-05T09:46:14.437Z,5.03
2024-01-05T09:48:47.931Z,4.67
2024-01-05T09:51:20.047Z,7.07
2024-01-05T09:53:48.783Z,6.70
2024-01-05T09:56:18.531Z,5.80
2024-01-05T09:58:47.545Z,4.37
2024-01-05T10:01:25.277Z,4.97
2024-01-05T10:03:57.296Z,7.77
2024-01-05T10:06:27.010Z,6.27
2024-01-05T10:08:57.036Z,6.10
2024-01-05T10:11:35.080Z,3.83
2024-01-05T10:14:07.878Z,5.40
2024-01-05T10:16:41.010Z,4.37
2024-01-05T10:19:14.904Z,8.93
2024-01-05T10:21:45.404Z,3.90
2024-01-05T10:24:18.973Z,5.90
2024-01-05T10:27:03.408Z,7.33
2024-01-05T10:29:33.997Z,9.37
2024-01-05T10:32:17.710Z,6.30
2024-01-05T10:34:49.403Z,5.07
2024-01-05T10:37:19.209Z,7.70
2024-01-05T10:39:48.364Z,5.03
2024-01-05T10:42:21.258Z,3.60
2024-01-05T10:44:53.415Z,6.27
2024-01-05T10:47:23.768Z,8.13
2024-01-05T10:49:54.194Z,7.77
2024-01-05T10:52:26.522Z,5.37
2024-01-05T10:54:55.715Z,4.77
2024-01-05T10:57:25.881Z,6.13
2024-01-05T10:59:56.716Z,8.40
2024-01-05T11:02:42.421Z,5.07
2024-01-05T11:05:13.210Z,4.63
2024-01-05T11:07:44.810Z,4.50
2024-01-05T11:10:29.520Z,4.13
2024-01-05T11:13:17.593Z,6.90
2024-01-05T11:16:12.048Z,5.53
2024-01-05T11:19:16.307Z,5.33
2024-01-05T11:21:52.865Z,4.40
2024-01-05T11:24:22.556Z,4.03
2024-01-05T11:26:51.319Z,6.27
2024-01-05T11:29:52.540Z,4.77
2024-01-05T11:32:40.717Z,3.93
2024-01-05T11:35:52.027Z,5.00
2024-01-05T11:38:32.220Z,4.23
2024-01-05T11:40:59.649Z,6.77
2024-01-05T11:43:37.000Z,5.50
2024-01-05T11:46:07.213Z,5.17
2024-01-05T11:48:53.896Z,5.83
2024-01-05T11:51:22.767Z,5.97
2024-01-05T11:53:51.396Z,7.63
2024-01-05T11:56:22.826Z,3.67
2024-01-05T11:58:51.329Z,5.23
2024-01-05T12:01:22.392Z,6.20
2024-01-05T12:03:56.708Z,4.73
2024-01-05T12:06:25.319Z,6.23
2024-01-05T12:08:53.740Z,5.80
2024-01-05T12:11:22.560Z,4.93
2024-01-05T12:13:50.854Z,3.20
2024-01-05T12:16:25.745Z,4.10
2024-01-05T12:18:56.345Z,3.73
2024-01-05T12:24:17.475Z,5.67
2024-01-05T12:26:47.048Z,5.50
2024-01-05T12:29:15.577Z,6.90
2024-01-05T12:31:45.498Z,5.77
2024-01-05T12:34:16.134Z,6.20
2024-01-05T12:36:44.557Z,6.53
2024-01-05T12:39:14.404Z,8.17
2024-01-05T12:41:47.546Z,8.13
2024-01-05T12:44:17.839Z,6.20
2024-01-05T12:46:49.116Z,6.90
2024-01-05T12:49:22.863Z,11.93
2024-01-05T12:51:54.837Z,29.83
2024-01-05T12:54:24.582Z,9.27
2024-01-05T12:56:55.240Z,3.93
2024-01-05T12:59:25.177Z,5.83
2024-01-05T13:02:01.519Z,7.37
2024-01-05T13:04:39.915Z,6.23
2024-01-05T13:07:14.734Z,6.50
2024-01-05T13:09:44.167Z,7.30
2024-01-05T13:12:12.576Z,6.83
2024-01-05T13:14:42.270Z,7.63
2024-01-05T13:17:11.903Z,7.30
2024-01-05T13:19:40.947Z,7.50
2024-01-05T13:22:11.511Z,7.13
2024-01-05T13:24:44.352Z,8.77
2024-01-05T13:27:15.085Z,9.47
2024-01-05T13:29:45.627Z,8.23
2024-01-05T13:32:15.464Z,8.70
2024-01-05T13:34:44.106Z,5.60
2024-01-05T13:37:12.864Z,6.83
2024-01-05T13:39:43.163Z,6.00
2024-01-05T13:42:13.508Z,7.80
2024-01-05T13:44:42.237Z,3.60
2024-01-05T13:47:11.032Z,5.23
2024-01-05T13:49:41.211Z,3.03
2024-01-05T13:52:09.520Z,7.80
2024-01-05T13:54:38.638Z,4.67
2024-01-05T13:57:07.192Z,5.93
2024-01-05T13:59:36.134Z,5.13
2024-01-05T14:02:05.469Z,7.50
2024-01-05T14:04:34.072Z,10.47
2024-01-05T14:07:03.735Z,6.40
2024-01-05T14:09:35.230Z,5.57
2024-01-05T14:12:04.524Z,6.30
2024-01-05T14:14:32.856Z,17.07
2024-01-05T14:17:03.186Z,10.93
2024-01-05T14:19:32.020Z,7.47
2024-01-05T14:22:00.597Z,9.53
2024-01-05T14:24:30.497Z,14.73
2024-01-05T14:26:59.266Z,7.93
2024-01-05T14:29:27.682Z,11.50
2024-01-05T14:32:01.092Z,4.87
2024-01-05T14:34:29.934Z,5.97
2024-01-05T14:36:58.343Z,6.13
2024-01-05T14:39:29.242Z,4.43
2024-01-05T14:41:58.967Z,4.93
2024-01-05T14:44:27.722Z,6.60
2024-01-05T14:46:56.544Z,7.93
2024-01-05T14:49:25.081Z,6.23
2024-01-05T14:51:56.596Z,5.43
2024-01-05T14:54:25.703Z,7.67
2024-01-05T14:56:54.130Z,7.03
2024-01-05T14:59:23.992Z,7.87
2024-01-05T15:01:52.588Z,6.77
2024-01-05T15:04:21.632Z,8.67
2024-01-05T15:06:50.200Z,7.10
2024-01-05T15:09:18.770Z,4.27
2024-01-05T15:11:47.182Z,8.73
2024-01-05T15:14:15.386Z,4.50
2024-01-05T15:16:50.883Z,5.23
2024-01-05T15:19:19.781Z,6.37
2024-01-05T15:21:48.355Z,7.93
2024-01-05T15:24:16.985Z,6.20
2024-01-05T15:26:46.189Z,17.03
2024-01-05T15:29:15.074Z,24.83
2024-01-05T15:31:45.316Z,19.60
2024-01-05T15:34:13.997Z,17.87
2024-01-05T15:36:42.461Z,10.67
2024-01-05T15:39:11.333Z,11.47
2024-01-05T15:41:40.210Z,11.10
2024-01-05T15:44:09.869Z,11.53
2024-01-05T15:46:38.321Z,8.07
2024-01-05T15:49:08.272Z,15.00
2024-01-05T15:51:38.018Z,12.93
2024-01-05T15:54:07.370Z,8.47
2024-01-05T15:56:37.125Z,10.13
2024-01-05T15:59:05.623Z,10.83
2024-01-05T16:01:34.496Z,5.87
2024-01-05T16:04:03.461Z,7.53
2024-01-05T16:06:33.156Z,6.37
2024-01-05T16:09:01.592Z,8.13
2024-01-05T16:11:31.066Z,4.07
2024-01-05T16:13:59.336Z,9.63
2024-01-05T16:16:28.887Z,4.73
2024-01-05T16:18:57.233Z,10.07
2024-01-05T16:21:28.627Z,5.80
2024-01-05T16:24:02.882Z,9.73
2024-01-05T16:26:31.457Z,4.70
2024-01-05T16:28:59.744Z,5.97
2024-01-05T16:31:28.317Z,4.00
2024-01-05T16:33:57.084Z,8.80
2024-01-05T16:36:26.960Z,6.27
2024-01-05T16:38:56.819Z,6.17
2024-01-05T16:41:25.975Z,9.40
2024-01-05T16:43:56.607Z,7.13
2024-01-05T16:46:25.351Z,6.17
2024-01-05T16:48:54.874Z,5.03
2024-01-05T16:51:24.321Z,7.27
2024-01-05T16:53:54.394Z,4.97
2024-01-05T16:56:28.322Z,5.33
2024-01-05T16:58:58.243Z,5.93
2024-01-05T17:01:26.992Z,5.33
2024-01-05T17:03:59.025Z,7.80
2024-01-05T17:06:27.808Z,10.50
2024-01-05T17:08:57.097Z,8.73
2024-01-05T17:11:30.770Z,13.37
2024-01-05T17:13:59.209Z,23.93
2024-01-05T17:16:28.524Z,17.17
2024-01-05T17:19:00.650Z,16.43
2024-01-05T17:21:30.190Z,13.07
2024-01-05T17:23:58.714Z,13.23
2024-01-05T17:26:28.526Z,9.30
2024-01-05T17:28:58.129Z,10.00
2024-01-05T17:31:26.871Z,7.87
2024-01-05T17:33:55.563Z,6.27
2024-01-05T17:36:27.919Z,7.57
2024-01-05T17:38:56.699Z,7.37
2024-01-05T17:41:26.094Z,3.60
2024-01-05T17:43:55.746Z,6.37
2024-01-05T17:46:24.115Z,4.40
2024-01-05T17:48:52.603Z,5.83
2024-01-05T17:51:21.186Z,7.03
2024-01-05T17:53:49.813Z,3.20
2024-01-05T17:56:27.214Z,4.37
2024-01-05T17:58:56.891Z,5.27
2024-01-05T18:01:25.939Z,4.33
2024-01-05T18:03:54.476Z,9.17
2024-01-05T18:06:23.086Z,6.40
2024-01-05T18:08:51.582Z,6.67
2024-01-05T18:11:24.125Z,7.53
2024-01-05T18:13:52.392Z,7.73
2024-01-05T18:16:26.797Z,6.27
2024-01-05T18:18:55.531Z,6.70
2024-01-05T18:21:26.356Z,6.47
2024-01-05T18:23:55.686Z,5.47
2024-01-05T18:26:25.587Z,6.40
2024-01-05T18:28:53.983Z,9.87
2024-01-05T18:31:27.781Z,5.60
2024-01-05T18:33:56.779Z,15.43
2024-01-05T18:36:25.713Z,21.77
2024-01-05T18:38:54.787Z,23.67
2024-01-05T18:41:24.283Z,23.27
2024-01-05T18:43:52.571Z,16.40
2024-01-05T18:46:20.941Z,15.70
2024-01-05T18:48:50.984Z,16.27
2024-01-05T18:51:19.684Z,18.90
2024-01-05T18:53:48.586Z,15.27
2024-01-05T18:56:16.887Z,11.60
2024-01-05T18:58:45.781Z,7.50
2024-01-05T19:01:14.213Z,6.63
2024-01-05T19:03:42.819Z,5.30
2024-01-05T19:06:17.552Z,7.03
2024-01-05T19:08:46.123Z,7.50
2024-01-05T19:11:14.953Z,4.53
2024-01-05T19:13:44.745Z,9.80
2024-01-05T19:16:14.392Z,5.77
2024-01-05T19:18:42.711Z,5.63
2024-01-05T19:21:11.536Z,5.30
2024-01-05T19:23:41.129Z,5.93
2024-01-05T19:26:09.876Z,6.77
2024-01-05T19:28:38.261Z,4.57
2024-01-05T19:31:07.528Z,6.00
2024-01-05T19:33:37.093Z,5.80
2024-01-05T19:36:10.057Z,8.77
2024-01-05T19:38:38.936Z,7.07
2024-01-05T19:41:10.230Z,6.90
2024-01-05T19:43:40.522Z,8.13
2024-01-05T19:46:09.451Z,5.10
2024-01-05T19:48:40.184Z,5.63
2024-01-05T19:51:12.997Z,4.83
2024-01-05T19:53:42.094Z,4.80
2024-01-05T19:56:13.569Z,6.03
2024-01-05T19:58:43.761Z,5.67
2024-01-05T20:01:12.303Z,5.20
2024-01-05T20:03:40.770Z,5.63
2024-01-05T20:06:09.407Z,8.47
2024-01-05T20:08:38.672Z,6.47
2024-01-05T20:11:11.742Z,7.83
2024-01-05T20:13:41.512Z,12.13
2024-01-05T20:16:10.529Z,8.87
2024-01-05T20:18:39.886Z,8.00
2024-01-05T20:21:15.566Z,7.83
2024-01-05T20:23:43.973Z,11.13
2024-01-05T20:26:19.683Z,7.67
2024-01-05T20:28:50.993Z,8.33
2024-01-05T20:31:20.422Z,10.67
2024-01-05T20:33:49.669Z,28.23
2024-01-05T20:36:18.535Z,17.60
2024-01-05T20:38:47.134Z,12.73
2024-01-05T20:41:15.457Z,12.93
2024-01-05T20:43:45.401Z,8.10
2024-01-05T20:46:15.142Z,5.87
2024-01-05T20:48:43.714Z,5.90
2024-01-05T20:51:12.180Z,5.53
2024-01-05T20:53:40.580Z,8.67
2024-01-05T20:56:09.019Z,6.80
2024-01-05T20:58:37.667Z,8.47
2024-01-05T21:01:06.561Z,9.40
2024-01-05T21:03:39.603Z,15.37
2024-01-05T21:06:08.561Z,14.20
2024-01-05T21:08:36.878Z,15.70
2024-01-05T21:11:07.766Z,13.83
2024-01-05T21:13:36.025Z,16.23
2024-01-05T21:16:07.354Z,16.63
2024-01-05T21:18:37.024Z,15.77
2024-01-05T21:21:08.827Z,8.83
2024-01-05T21:23:37.573Z,5.70
2024-01-05T21:26:06.962Z,4.50
2024-01-05T21:28:35.489Z,7.83
2024-01-05T21:31:07.838Z,6.20
2024-01-05T21:33:37.702Z,4.80
2024-01-05T21:36:12.265Z,4.10
2024-01-05T21:38:40.617Z,4.03
2024-01-05T21:41:09.737Z,7.90
2024-01-05T21:43:37.951Z,8.53
2024-01-05T21:46:07.015Z,4.40
2024-01-05T21:48:35.925Z,12.37
2024-01-05T21:51:04.641Z,4.70
2024-01-05T21:53:34.272Z,6.87
2024-01-05T21:56:02.130Z,9.70
2024-01-05T21:58:31.769Z,5.53
2024-01-05T22:01:00.063Z,5.10
2024-01-05T22:03:28.613Z,8.10
2024-01-05T22:05:57.421Z,6.17
2024-01-05T22:08:26.580Z,8.40
2024-01-05T22:10:57.315Z,6.73
2024-01-05T22:13:26.157Z,8.13
2024-01-05T22:15:55.512Z,7.53
2024-01-05T22:18:24.105Z,7.83
2024-01-05T22:20:52.476Z,7.87
2024-01-05T22:23:20.741Z,9.20
2024-01-05T22:25:50.241Z,10.80
2024-01-05T22:28:20.049Z,9.73
2024-01-05T22:30:48.729Z,10.43
2024-01-05T22:33:18.094Z,12.80
2024-01-05T22:35:47.830Z,10.73
2024-01-05T22:38:16.254Z,16.73
2024-01-05T22:40:45.617Z,10.30
2024-01-05T22:43:14.282Z,10.87
2024-01-05T22:45:44.142Z,7.67
2024-01-05T22:48:13.007Z,7.13
2024-01-05T22:50:41.437Z,9.40
2024-01-05T22:53:09.952Z,9.80
2024-01-05T22:55:38.605Z,9.93
2024-01-05T22:58:08.376Z,8.90
2024-01-05T23:00:37.592Z,8.73
2024-01-05T23:03:07.920Z,6.70
2024-01-05T23:05:41.007Z,9.97
2024-01-05T23:08:16.736Z,7.93
2024-01-05T23:10:47.510Z,7.67
2024-01-05T23:13:15.809Z,10.93
2024-01-05T23:15:44.339Z,8.23
2024-01-05T23:18:15.048Z,9.43
2024-01-05T23:20:44.375Z,10.50
2024-01-05T23:23:12.698Z,10.07
2024-01-05T23:25:41.913Z,11.80
2024-01-05T23:28:10.171Z,11.27
2024-01-05T23:30:38.970Z,12.90
2024-01-05T23:33:07.831Z,7.70
2024-01-05T23:35:37.500Z,9.27
2024-01-05T23:38:06.057Z,7.80
2024-01-05T23:40:34.534Z,7.90
2024-01-05T23:43:03.275Z,9.00
2024-01-05T23:45:31.591Z,8.40
2024-01-05T23:48:00.075Z,8.53
2024-01-05T23:50:55.508Z,6.40
2024-01-05T23:53:24.150Z,6.00
2024-01-05T23:55:52.512Z,9.33
2024-01-05T23:58:23.037Z,9.30
